sensor_id;sensor_type;location;lat;lon;timestamp;P1;durP1;ratioP1;P2;durP2;ratioP2
3815;SDS011;1923;48.154;11.536;2023-02-01T00:00:54;5.27;;;2.90;;
3815;SDS011;1923;48.154;11.536;2023-02-01T00:03:22;6.10;;;3.40;;
3815;SDS011;1923;48.154;11.536;2023-02-01T00:05:59;3.27;;;2.70;;
3815;SDS011;1923;48.154;11.536;2023-02-01T00:08:28;4.73;;;2.43;;
3815;SDS011;1923;48.154;11.536;2023-02-01T00:10:59;5.60;;;2.50;;
3815;SDS011;1923;48.154;11.536;2023-02-01T00:13:30;3.73;;;2.70;;
3815;SDS011;1923;48.154;11.536;2023-02-01T00:16:03;4.20;;;2.93;;
3815;SDS011;1923;48.154;11.536;2023-02-01T00:18:32;3.60;;;2.50;;
3815;SDS011;1923;48.154;11.536;2023-02-01T00:21:00;3.93;;;2.60;;
3815;SDS011;1923;48.154;11.536;2023-02-01T00:23:31;4.75;;;2.60;;
3815;SDS011;1923;48.154;11.536;2023-02-01T00:26:00;4.83;;;2.50;;
3815;SDS011;1923;48.154;11.536;2023-02-01T00:28:30;2.63;;;1.80;;
3815;SDS011;1923;48.154;11.536;2023-02-01T00:30:59;2.93;;;2.17;;
3815;SDS011;1923;48.154;11.536;2023-02-01T00:33:28;3.30;;;2.03;;
3815;SDS011;1923;48.154;11.536;2023-02-01T00:35:57;3.80;;;2.27;;
3815;SDS011;1923;48.154;11.536;2023-02-01T00:38:26;3.17;;;2.40;;
3815;SDS011;1923;48.154;11.536;2023-02-01T00:40:54;4.73;;;2.30;;
3815;SDS011;1923;48.154;11.536;2023-02-01T00:43:31;2.90;;;2.20;;
3815;SDS011;1923;48.154;11.536;2023-02-01T00:45:59;4.00;;;2.60;;
3815;SDS011;1923;48.154;11.536;2023-02-01T00:48:28;8.50;;;2.97;;
3815;SDS011;1923;48.154;11.536;2023-02-01T00:50:58;4.73;;;2.80;;
3815;SDS011;1923;48.154;11.536;2023-02-01T00:53:27;5.13;;;2.70;;
3815;SDS011;1923;48.154;11.536;2023-02-01T00:55:55;6.13;;;2.83;;
3815;SDS011;1923;48.154;11.536;2023-02-01T00:58:23;4.53;;;2.90;;
3815;SDS011;1923;48.154;11.536;2023-02-01T01:01:01;5.23;;;2.70;;
3815;SDS011;1923;48.154;11.536;2023-02-01T01:03:31;4.60;;;3.13;;
3815;SDS011;1923;48.154;11.536;2023-02-01T01:06:00;5.93;;;2.90;;
3815;SDS011;1923;48.154;11.536;2023-02-01T01:08:30;5.40;;;3.60;;
3815;SDS011;1923;48.154;11.536;2023-02-01T01:10:59;4.80;;;3.33;;
3815;SDS011;1923;48.154;11.536;2023-02-01T01:13:31;4.43;;;2.73;;
3815;SDS011;1923;48.154;11.536;2023-02-01T01:16:01;4.40;;;3.20;;
3815;SDS011;1923;48.154;11.536;2023-02-01T01:18:30;5.70;;;3.40;;
3815;SDS011;1923;48.154;11.536;2023-02-01T01:20:59;6.20;;;3.67;;
3815;SDS011;1923;48.154;11.536;2023-02-01T01:23:28;6.07;;;3.70;;
3815;SDS011;1923;48.154;11.536;2023-02-01T01:25:56;4.93;;;3.27;;
3815;SDS011;1923;48.154;11.536;2023-02-01T01:28:24;6.57;;;3.50;;
3815;SDS011;1923;48.154;11.536;2023-02-01T01:30:52;4.60;;;3.10;;
3815;SDS011;1923;48.154;11.536;2023-02-01T01:33:22;4.37;;;3.00;;
3815;SDS011;1923;48.154;11.536;2023-02-01T01:35:50;5.13;;;3.67;;
3815;SDS011;1923;48.154;11.536;2023-02-01T01:38:18;6.20;;;4.00;;
3815;SDS011;1923;48.154;11.536;2023-02-01T01:40:46;5.03;;;3.73;;
3815;SDS011;1923;48.154;11.536;2023-02-01T01:43:16;5.28;;;3.30;;
3815;SDS011;1923;48.154;11.536;2023-02-01T01:45:49;7.00;;;3.53;;
3815;SDS011;1923;48.154;11.536;2023-02-01T01:48:18;5.53;;;3.83;;
3815;SDS011;1923;48.154;11.536;2023-02-01T01:50:54;5.57;;;3.73;;
3815;SDS011;1923;48.154;11.536;2023-02-01T01:53:25;6.00;;;3.70;;
3815;SDS011;1923;48.154;11.536;2023-02-01T01:55:59;7.10;;;3.70;;
3815;SDS011;1923;48.154;11.536;2023-02-01T01:58:28;6.80;;;4.00;;
3815;SDS011;1923;48.154;11.536;2023-02-01T02:00:57;6.77;;;4.80;;
3815;SDS011;1923;48.154;11.536;2023-02-01T02:03:29;5.30;;;4.20;;
3815;SDS011;1923;48.154;11.536;2023-02-01T02:06:02;7.20;;;4.17;;
3815;SDS011;1923;48.154;11.536;2023-02-01T02:08:36;10.93;;;4.23;;
3815;SDS011;1923;48.154;11.536;2023-02-01T02:11:04;10.70;;;4.33;;
3815;SDS011;1923;48.154;11.536;2023-02-01T02:13:33;7.33;;;4.33;;
3815;SDS011;1923;48.154;11.536;2023-02-01T02:16:08;8.93;;;4.20;;
3815;SDS011;1923;48.154;11.536;2023-02-01T02:19:00;7.17;;;4.13;;
3815;SDS011;1923;48.154;11.536;2023-02-01T02:22:05;6.27;;;4.53;;
3815;SDS011;1923;48.154;11.536;2023-02-01T02:24:55;6.07;;;4.40;;
3815;SDS011;1923;48.154;11.536;2023-02-01T02:27:54;7.43;;;4.50;;
3815;SDS011;1923;48.154;11.536;2023-02-01T02:33:42;6.80;;;4.20;;
3815;SDS011;1923;48.154;11.536;2023-02-01T02:36:24;7.80;;;3.97;;
3815;SDS011;1923;48.154;11.536;2023-02-01T02:39:03;6.83;;;4.50;;
3815;SDS011;1923;48.154;11.536;2023-02-01T02:41:38;6.40;;;4.10;;
3815;SDS011;1923;48.154;11.536;2023-02-01T02:44:34;8.67;;;4.90;;
3815;SDS011;1923;48.154;11.536;2023-02-01T11:02:05;6.10;;;2.53;;
3815;SDS011;1923;48.154;11.536;2023-02-01T11:04:46;4.10;;;2.50;;
3815;SDS011;1923;48.154;11.536;2023-02-01T11:07:16;8.15;;;3.00;;
3815;SDS011;1923;48.154;11.536;2023-02-01T11:09:49;6.90;;;2.97;;
3815;SDS011;1923;48.154;11.536;2023-02-01T11:12:22;4.80;;;2.93;;
3815;SDS011;1923;48.154;11.536;2023-02-01T11:14:59;4.83;;;2.33;;
3815;SDS011;1923;48.154;11.536;2023-02-01T11:17:34;4.07;;;2.90;;
3815;SDS011;1923;48.154;11.536;2023-02-01T11:20:14;5.57;;;3.30;;
3815;SDS011;1923;48.154;11.536;2023-02-01T11:22:46;5.97;;;3.20;;
3815;SDS011;1923;48.154;11.536;2023-02-01T11:25:16;4.10;;;2.43;;
3815;SDS011;1923;48.154;11.536;2023-02-01T11:27:45;7.13;;;2.57;;
3815;SDS011;1923;48.154;11.536;2023-02-01T11:30:22;7.50;;;3.00;;
3815;SDS011;1923;48.154;11.536;2023-02-01T11:33:00;6.03;;;3.17;;
3815;SDS011;1923;48.154;11.536;2023-02-01T11:35:32;8.53;;;3.30;;
3815;SDS011;1923;48.154;11.536;2023-02-01T11:38:10;7.37;;;3.10;;
3815;SDS011;1923;48.154;11.536;2023-02-01T11:40:43;5.27;;;3.17;;
3815;SDS011;1923;48.154;11.536;2023-02-01T11:43:13;6.65;;;2.70;;
3815;SDS011;1923;48.154;11.536;2023-02-01T11:45:53;5.87;;;2.67;;
3815;SDS011;1923;48.154;11.536;2023-02-01T11:48:25;4.60;;;2.80;;
3815;SDS011;1923;48.154;11.536;2023-02-01T11:50:58;5.30;;;2.73;;
3815;SDS011;1923;48.154;11.536;2023-02-01T11:53:38;4.37;;;2.97;;
3815;SDS011;1923;48.154;11.536;2023-02-01T11:56:25;9.50;;;3.10;;
3815;SDS011;1923;48.154;11.536;2023-02-01T11:59:05;4.75;;;3.05;;
3815;SDS011;1923;48.154;11.536;2023-02-01T12:01:58;5.73;;;3.03;;
3815;SDS011;1923;48.154;11.536;2023-02-01T12:07:57;4.82;;;3.20;;
3815;SDS011;1923;48.154;11.536;2023-02-01T12:10:39;5.80;;;3.13;;
3815;SDS011;1923;48.154;11.536;2023-02-01T12:13:20;4.65;;;3.05;;
3815;SDS011;1923;48.154;11.536;2023-02-01T12:16:01;4.97;;;3.43;;
3815;SDS011;1923;48.154;11.536;2023-02-01T12:18:45;5.10;;;3.00;;
3815;SDS011;1923;48.154;11.536;2023-02-01T12:21:31;8.23;;;3.00;;
3815;SDS011;1923;48.154;11.536;2023-02-01T12:24:40;7.53;;;3.00;;
3815;SDS011;1923;48.154;11.536;2023-02-01T12:27:25;4.33;;;3.10;;
3815;SDS011;1923;48.154;11.536;2023-02-01T12:30:16;5.23;;;3.30;;
3815;SDS011;1923;48.154;11.536;2023-02-01T12:33:04;6.47;;;3.10;;
3815;SDS011;1923;48.154;11.536;2023-02-01T12:35:51;6.57;;;2.90;;
3815;SDS011;1923;48.154;11.536;2023-02-01T12:38:32;10.50;;;5.27;;
3815;SDS011;1923;48.154;11.536;2023-02-01T12:41:34;5.40;;;2.73;;
3815;SDS011;1923;48.154;11.536;2023-02-01T12:44:37;5.80;;;3.83;;
3815;SDS011;1923;48.154;11.536;2023-02-01T12:47:12;5.27;;;3.37;;
3815;SDS011;1923;48.154;11.536;2023-02-01T12:49:52;8.13;;;2.80;;
3815;SDS011;1923;48.154;11.536;2023-02-01T12:52:27;6.67;;;3.63;;
3815;SDS011;1923;48.154;11.536;2023-02-01T12:55:06;4.03;;;2.80;;
3815;SDS011;1923;48.154;11.536;2023-02-01T12:57:43;5.00;;;2.83;;
3815;SDS011;1923;48.154;11.536;2023-02-01T13:00:17;8.40;;;3.10;;
3815;SDS011;1923;48.154;11.536;2023-02-01T13:02:52;7.53;;;3.73;;
3815;SDS011;1923;48.154;11.536;2023-02-01T13:05:27;4.87;;;3.00;;
3815;SDS011;1923;48.154;11.536;2023-02-01T13:08:02;7.17;;;3.70;;
3815;SDS011;1923;48.154;11.536;2023-02-01T13:10:36;6.03;;;3.00;;
3815;SDS011;1923;48.154;11.536;2023-02-01T13:13:11;5.70;;;2.90;;
3815;SDS011;1923;48.154;11.536;2023-02-01T13:15:47;4.10;;;2.50;;
3815;SDS011;1923;48.154;11.536;2023-02-01T13:18:19;7.17;;;3.50;;
3815;SDS011;1923;48.154;11.536;2023-02-01T13:20:51;4.30;;;2.77;;
3815;SDS011;1923;48.154;11.536;2023-02-01T13:23:24;3.73;;;2.50;;
3815;SDS011;1923;48.154;11.536;2023-02-01T13:25:56;4.13;;;3.07;;
3815;SDS011;1923;48.154;11.536;2023-02-01T13:28:26;5.23;;;3.13;;
3815;SDS011;1923;48.154;11.536;2023-02-01T13:34:01;7.87;;;3.37;;
3815;SDS011;1923;48.154;11.536;2023-02-01T13:36:59;4.50;;;2.77;;
3815;SDS011;1923;48.154;11.536;2023-02-01T13:39:43;9.47;;;3.57;;
3815;SDS011;1923;48.154;11.536;2023-02-01T13:42:21;4.03;;;3.30;;
3815;SDS011;1923;48.154;11.536;2023-02-01T13:44:52;7.27;;;2.73;;
3815;SDS011;1923;48.154;11.536;2023-02-01T13:47:27;7.97;;;4.77;;
3815;SDS011;1923;48.154;11.536;2023-02-01T13:49:58;4.03;;;3.00;;
3815;SDS011;1923;48.154;11.536;2023-02-01T13:52:31;7.43;;;3.87;;
3815;SDS011;1923;48.154;11.536;2023-02-01T13:55:13;5.83;;;3.10;;
3815;SDS011;1923;48.154;11.536;2023-02-01T13:58:01;6.27;;;2.73;;
3815;SDS011;1923;48.154;11.536;2023-02-01T14:00:42;6.80;;;2.97;;
3815;SDS011;1923;48.154;11.536;2023-02-01T14:03:15;3.83;;;2.53;;
3815;SDS011;1923;48.154;11.536;2023-02-01T14:08:46;4.70;;;2.90;;
3815;SDS011;1923;48.154;11.536;2023-02-01T14:11:41;3.53;;;2.63;;
3815;SDS011;1923;48.154;11.536;2023-02-01T14:28:54;4.33;;;3.17;;
3815;SDS011;1923;48.154;11.536;2023-02-01T14:31:30;5.10;;;3.10;;
3815;SDS011;1923;48.154;11.536;2023-02-01T14:34:12;3.90;;;2.50;;
3815;SDS011;1923;48.154;11.536;2023-02-01T14:36:47;3.60;;;2.50;;
3815;SDS011;1923;48.154;11.536;2023-02-01T14:39:20;7.20;;;3.43;;
3815;SDS011;1923;48.154;11.536;2023-02-01T14:41:53;6.57;;;2.87;;
3815;SDS011;1923;48.154;11.536;2023-02-01T14:44:29;4.07;;;2.93;;
3815;SDS011;1923;48.154;11.536;2023-02-01T14:47:09;6.03;;;2.60;;
3815;SDS011;1923;48.154;11.536;2023-02-01T14:50:03;10.60;;;2.40;;
3815;SDS011;1923;48.154;11.536;2023-02-01T14:53:12;13.40;;;3.40;;
3815;SDS011;1923;48.154;11.536;2023-02-01T14:55:46;7.03;;;2.90;;
3815;SDS011;1923;48.154;11.536;2023-02-01T14:58:19;3.07;;;2.50;;
3815;SDS011;1923;48.154;11.536;2023-02-01T15:01:00;5.60;;;2.50;;
3815;SDS011;1923;48.154;11.536;2023-02-01T15:03:43;5.85;;;2.97;;
3815;SDS011;1923;48.154;11.536;2023-02-01T15:06:21;4.27;;;2.70;;
3815;SDS011;1923;48.154;11.536;2023-02-01T15:08:56;5.90;;;2.60;;
3815;SDS011;1923;48.154;11.536;2023-02-01T15:11:26;4.10;;;2.30;;
3815;SDS011;1923;48.154;11.536;2023-02-01T15:13:55;7.17;;;2.50;;
3815;SDS011;1923;48.154;11.536;2023-02-01T15:16:24;4.30;;;2.60;;
3815;SDS011;1923;48.154;11.536;2023-02-01T15:19:10;6.17;;;2.53;;
3815;SDS011;1923;48.154;11.536;2023-02-01T15:21:44;3.80;;;2.43;;
3815;SDS011;1923;48.154;11.536;2023-02-01T15:24:17;2.70;;;2.20;;
3815;SDS011;1923;48.154;11.536;2023-02-01T15:26:48;5.20;;;3.03;;
3815;SDS011;1923;48.154;11.536;2023-02-01T15:29:16;3.25;;;2.10;;
3815;SDS011;1923;48.154;11.536;2023-02-01T15:31:46;4.70;;;2.40;;
3815;SDS011;1923;48.154;11.536;2023-02-01T15:34:17;6.43;;;2.03;;
3815;SDS011;1923;48.154;11.536;2023-02-01T15:36:46;4.43;;;2.17;;
3815;SDS011;1923;48.154;11.536;2023-02-01T15:39:28;4.00;;;2.03;;
3815;SDS011;1923;48.154;11.536;2023-02-01T15:41:59;3.43;;;2.27;;
3815;SDS011;1923;48.154;11.536;2023-02-01T15:44:30;3.92;;;1.98;;
3815;SDS011;1923;48.154;11.536;2023-02-01T15:47:08;2.90;;;2.37;;
3815;SDS011;1923;48.154;11.536;2023-02-01T15:49:42;5.00;;;2.80;;
3815;SDS011;1923;48.154;11.536;2023-02-01T15:52:17;5.83;;;2.63;;
3815;SDS011;1923;48.154;11.536;2023-02-01T15:54:50;5.50;;;2.30;;
3815;SDS011;1923;48.154;11.536;2023-02-01T15:57:22;3.03;;;2.03;;
3815;SDS011;1923;48.154;11.536;2023-02-01T15:59:57;4.27;;;2.53;;
3815;SDS011;1923;48.154;11.536;2023-02-01T16:02:28;4.53;;;2.67;;
3815;SDS011;1923;48.154;11.536;2023-02-01T16:05:02;4.80;;;2.80;;
3815;SDS011;1923;48.154;11.536;2023-02-01T16:07:33;5.33;;;2.60;;
3815;SDS011;1923;48.154;11.536;2023-02-01T16:10:02;8.00;;;2.90;;
3815;SDS011;1923;48.154;11.536;2023-02-01T16:12:52;4.33;;;2.40;;
3815;SDS011;1923;48.154;11.536;2023-02-01T16:15:24;4.10;;;2.50;;
3815;SDS011;1923;48.154;11.536;2023-02-01T16:17:52;6.90;;;2.00;;
3815;SDS011;1923;48.154;11.536;2023-02-01T16:20:22;8.40;;;2.60;;
3815;SDS011;1923;48.154;11.536;2023-02-01T16:22:50;14.90;;;2.30;;
3815;SDS011;1923;48.154;11.536;2023-02-01T16:25:18;9.70;;;3.03;;
3815;SDS011;1923;48.154;11.536;2023-02-01T16:27:47;4.40;;;2.13;;
3815;SDS011;1923;48.154;11.536;2023-02-01T16:30:15;4.77;;;2.13;;
3815;SDS011;1923;48.154;11.536;2023-02-01T16:32:49;5.27;;;3.60;;
3815;SDS011;1923;48.154;11.536;2023-02-01T16:35:23;5.50;;;1.80;;
3815;SDS011;1923;48.154;11.536;2023-02-01T16:37:52;4.90;;;1.93;;
3815;SDS011;1923;48.154;11.536;2023-02-01T16:40:20;3.85;;;1.60;;
3815;SDS011;1923;48.154;11.536;2023-02-01T16:42:49;5.00;;;2.60;;
3815;SDS011;1923;48.154;11.536;2023-02-01T16:45:18;4.60;;;1.80;;
3815;SDS011;1923;48.154;11.536;2023-02-01T16:47:48;4.30;;;2.00;;
3815;SDS011;1923;48.154;11.536;2023-02-01T16:50:18;3.30;;;2.37;;
3815;SDS011;1923;48.154;11.536;2023-02-01T16:52:51;3.30;;;1.70;;
3815;SDS011;1923;48.154;11.536;2023-02-01T16:55:20;9.03;;;2.90;;
3815;SDS011;1923;48.154;11.536;2023-02-01T16:57:49;4.60;;;2.40;;
3815;SDS011;1923;48.154;11.536;2023-02-01T17:00:18;4.87;;;2.80;;
3815;SDS011;1923;48.154;11.536;2023-02-01T17:02:50;9.43;;;2.83;;
3815;SDS011;1923;48.154;11.536;2023-02-01T17:05:19;4.97;;;2.70;;
3815;SDS011;1923;48.154;11.536;2023-02-01T17:07:48;8.63;;;2.87;;
3815;SDS011;1923;48.154;11.536;2023-02-01T17:10:20;4.30;;;2.87;;
3815;SDS011;1923;48.154;11.536;2023-02-01T17:13:00;3.60;;;2.33;;
3815;SDS011;1923;48.154;11.536;2023-02-01T17:15:29;3.60;;;2.23;;
3815;SDS011;1923;48.154;11.536;2023-02-01T17:18:02;6.95;;;2.30;;
3815;SDS011;1923;48.154;11.536;2023-02-01T17:20:30;8.73;;;3.33;;
3815;SDS011;1923;48.154;11.536;2023-02-01T17:23:01;3.53;;;2.30;;
3815;SDS011;1923;48.154;11.536;2023-02-01T17:25:29;13.30;;;2.77;;
3815;SDS011;1923;48.154;11.536;2023-02-01T17:27:58;7.43;;;2.47;;
3815;SDS011;1923;48.154;11.536;2023-02-01T17:30:26;2.77;;;2.03;;
3815;SDS011;1923;48.154;11.536;2023-02-01T17:32:54;7.83;;;2.67;;
3815;SDS011;1923;48.154;11.536;2023-02-01T17:35:23;6.17;;;2.40;;
3815;SDS011;1923;48.154;11.536;2023-02-01T17:37:53;3.53;;;2.77;;
3815;SDS011;1923;48.154;11.536;2023-02-01T17:40:23;3.47;;;2.67;;
3815;SDS011;1923;48.154;11.536;2023-02-01T17:42:53;3.90;;;2.33;;
3815;SDS011;1923;48.154;11.536;2023-02-01T17:45:26;5.67;;;2.47;;
3815;SDS011;1923;48.154;11.536;2023-02-01T17:48:02;4.20;;;1.67;;
3815;SDS011;1923;48.154;11.536;2023-02-01T17:50:31;7.30;;;2.40;;
3815;SDS011;1923;48.154;11.536;2023-02-01T17:53:02;8.10;;;2.83;;
3815;SDS011;1923;48.154;11.536;2023-02-01T17:55:33;7.30;;;2.40;;
3815;SDS011;1923;48.154;11.536;2023-02-01T17:58:02;4.53;;;2.27;;
3815;SDS011;1923;48.154;11.536;2023-02-01T18:00:31;5.20;;;2.33;;
3815;SDS011;1923;48.154;11.536;2023-02-01T18:03:02;6.70;;;2.10;;
3815;SDS011;1923;48.154;11.536;2023-02-01T18:05:32;8.15;;;2.50;;
3815;SDS011;1923;48.154;11.536;2023-02-01T18:08:05;2.93;;;2.27;;
3815;SDS011;1923;48.154;11.536;2023-02-01T18:10:35;4.80;;;2.37;;
3815;SDS011;1923;48.154;11.536;2023-02-01T18:13:03;4.17;;;1.83;;
3815;SDS011;1923;48.154;11.536;2023-02-01T18:15:31;7.33;;;3.03;;
3815;SDS011;1923;48.154;11.536;2023-02-01T18:17:59;4.82;;;1.70;;
3815;SDS011;1923;48.154;11.536;2023-02-01T18:20:27;4.70;;;2.00;;
3815;SDS011;1923;48.154;11.536;2023-02-01T18:22:55;5.13;;;2.43;;
3815;SDS011;1923;48.154;11.536;2023-02-01T18:25:24;7.80;;;1.97;;
3815;SDS011;1923;48.154;11.536;2023-02-01T18:27:55;9.53;;;2.40;;
3815;SDS011;1923;48.154;11.536;2023-02-01T18:30:24;5.30;;;2.30;;
3815;SDS011;1923;48.154;11.536;2023-02-01T18:32:57;5.73;;;2.47;;
3815;SDS011;1923;48.154;11.536;2023-02-01T18:35:26;5.83;;;2.30;;
3815;SDS011;1923;48.154;11.536;2023-02-01T18:37:55;4.77;;;2.27;;
3815;SDS011;1923;48.154;11.536;2023-02-01T18:40:24;3.70;;;1.92;;
3815;SDS011;1923;48.154;11.536;2023-02-01T18:42:55;4.73;;;2.60;;
3815;SDS011;1923;48.154;11.536;2023-02-01T18:45:34;3.50;;;2.07;;
3815;SDS011;1923;48.154;11.536;2023-02-01T18:48:04;5.70;;;2.33;;
3815;SDS011;1923;48.154;11.536;2023-02-01T18:50:33;4.73;;;2.30;;
3815;SDS011;1923;48.154;11.536;2023-02-01T18:53:03;2.65;;;2.05;;
3815;SDS011;1923;48.154;11.536;2023-02-01T18:55:33;3.10;;;2.10;;
3815;SDS011;1923;48.154;11.536;2023-02-01T18:58:03;5.60;;;1.90;;
3815;SDS011;1923;48.154;11.536;2023-02-01T19:00:32;6.68;;;1.90;;
3815;SDS011;1923;48.154;11.536;2023-02-01T19:03:01;3.47;;;2.03;;
3815;SDS011;1923;48.154;11.536;2023-02-01T19:05:30;4.40;;;2.53;;
3815;SDS011;1923;48.154;11.536;2023-02-01T19:07:58;4.87;;;2.00;;
3815;SDS011;1923;48.154;11.536;2023-02-01T19:10:26;4.80;;;2.37;;
3815;SDS011;1923;48.154;11.536;2023-02-01T19:12:54;4.70;;;2.03;;
3815;SDS011;1923;48.154;11.536;2023-02-01T19:15:24;3.80;;;2.00;;
3815;SDS011;1923;48.154;11.536;2023-02-01T19:17:53;7.23;;;2.50;;
3815;SDS011;1923;48.154;11.536;2023-02-01T19:20:23;3.17;;;2.20;;
3815;SDS011;1923;48.154;11.536;2023-02-01T19:22:52;4.80;;;2.27;;
3815;SDS011;1923;48.154;11.536;2023-02-01T19:25:21;3.53;;;2.10;;
3815;SDS011;1923;48.154;11.536;2023-02-01T19:27:51;4.60;;;2.23;;
3815;SDS011;1923;48.154;11.536;2023-02-01T19:30:20;2.03;;;1.40;;
3815;SDS011;1923;48.154;11.536;2023-02-01T19:32:51;6.67;;;2.27;;
3815;SDS011;1923;48.154;11.536;2023-02-01T19:35:20;5.00;;;2.70;;
3815;SDS011;1923;48.154;11.536;2023-02-01T19:37:48;7.00;;;1.83;;
3815;SDS011;1923;48.154;11.536;2023-02-01T19:40:17;5.10;;;2.10;;
3815;SDS011;1923;48.154;11.536;2023-02-01T19:42:47;5.33;;;2.43;;
3815;SDS011;1923;48.154;11.536;2023-02-01T19:45:15;5.80;;;2.23;;
3815;SDS011;1923;48.154;11.536;2023-02-01T19:47:43;9.17;;;2.57;;
3815;SDS011;1923;48.154;11.536;2023-02-01T19:50:16;6.40;;;2.00;;
3815;SDS011;1923;48.154;11.536;2023-02-01T19:52:46;7.77;;;2.03;;
3815;SDS011;1923;48.154;11.536;2023-02-01T19:55:15;7.50;;;1.90;;
3815;SDS011;1923;48.154;11.536;2023-02-01T19:57:43;5.15;;;1.85;;
3815;SDS011;1923;48.154;11.536;2023-02-01T20:00:11;6.47;;;1.88;;
3815;SDS011;1923;48.154;11.536;2023-02-01T20:02:42;3.60;;;2.03;;
3815;SDS011;1923;48.154;11.536;2023-02-01T20:05:11;5.10;;;1.60;;
3815;SDS011;1923;48.154;11.536;2023-02-01T20:07:40;3.77;;;2.40;;
3815;SDS011;1923;48.154;11.536;2023-02-01T20:10:09;2.60;;;1.58;;
3815;SDS011;1923;48.154;11.536;2023-02-01T20:12:37;5.13;;;2.00;;
3815;SDS011;1923;48.154;11.536;2023-02-01T20:15:06;5.23;;;2.30;;
3815;SDS011;1923;48.154;11.536;2023-02-01T20:17:35;3.03;;;1.67;;
3815;SDS011;1923;48.154;11.536;2023-02-01T20:20:03;8.17;;;2.07;;
3815;SDS011;1923;48.154;11.536;2023-02-01T20:22:32;7.43;;;2.30;;
3815;SDS011;1923;48.154;11.536;2023-02-01T20:25:01;5.87;;;2.20;;
3815;SDS011;1923;48.154;11.536;2023-02-01T20:27:30;4.90;;;2.00;;
3815;SDS011;1923;48.154;11.536;2023-02-01T20:29:58;2.43;;;1.70;;
3815;SDS011;1923;48.154;11.536;2023-02-01T20:32:26;2.80;;;1.70;;
3815;SDS011;1923;48.154;11.536;2023-02-01T20:34:54;5.85;;;1.92;;
3815;SDS011;1923;48.154;11.536;2023-02-01T20:37:22;6.50;;;1.75;;
3815;SDS011;1923;48.154;11.536;2023-02-01T20:39:50;5.78;;;1.80;;
3815;SDS011;1923;48.154;11.536;2023-02-01T20:42:21;6.27;;;2.67;;
3815;SDS011;1923;48.154;11.536;2023-02-01T20:44:49;8.63;;;2.37;;
3815;SDS011;1923;48.154;11.536;2023-02-01T20:47:17;2.40;;;1.93;;
3815;SDS011;1923;48.154;11.536;2023-02-01T20:49:45;3.73;;;1.80;;
3815;SDS011;1923;48.154;11.536;2023-02-01T20:52:13;3.80;;;1.60;;
3815;SDS011;1923;48.154;11.536;2023-02-01T20:54:41;3.80;;;1.77;;
3815;SDS011;1923;48.154;11.536;2023-02-01T20:57:09;2.80;;;2.30;;
3815;SDS011;1923;48.154;11.536;2023-02-01T20:59:38;3.23;;;2.00;;
3815;SDS011;1923;48.154;11.536;2023-02-01T21:02:07;4.88;;;1.90;;
3815;SDS011;1923;48.154;11.536;2023-02-01T21:04:37;7.10;;;2.23;;
3815;SDS011;1923;48.154;11.536;2023-02-01T21:07:05;2.67;;;1.60;;
3815;SDS011;1923;48.154;11.536;2023-02-01T21:09:33;5.47;;;1.77;;
3815;SDS011;1923;48.154;11.536;2023-02-01T21:12:02;2.83;;;1.90;;
3815;SDS011;1923;48.154;11.536;2023-02-01T21:14:30;3.70;;;1.90;;
3815;SDS011;1923;48.154;11.536;2023-02-01T21:16:59;4.93;;;2.23;;
3815;SDS011;1923;48.154;11.536;2023-02-01T21:19:27;5.63;;;1.87;;
3815;SDS011;1923;48.154;11.536;2023-02-01T21:22:08;4.30;;;1.80;;
3815;SDS011;1923;48.154;11.536;2023-02-01T21:24:36;1.87;;;1.77;;
3815;SDS011;1923;48.154;11.536;2023-02-01T21:27:05;5.07;;;1.83;;
3815;SDS011;1923;48.154;11.536;2023-02-01T21:29:34;2.17;;;1.50;;
3815;SDS011;1923;48.154;11.536;2023-02-01T21:32:03;2.27;;;1.53;;
3815;SDS011;1923;48.154;11.536;2023-02-01T21:34:32;1.60;;;1.50;;
3815;SDS011;1923;48.154;11.536;2023-02-01T21:37:00;4.50;;;2.50;;
3815;SDS011;1923;48.154;11.536;2023-02-01T21:39:28;4.00;;;1.63;;
3815;SDS011;1923;48.154;11.536;2023-02-01T21:41:56;7.50;;;2.20;;
3815;SDS011;1923;48.154;11.536;2023-02-01T21:44:39;3.43;;;1.80;;
3815;SDS011;1923;48.154;11.536;2023-02-01T21:47:08;12.10;;;2.60;;
3815;SDS011;1923;48.154;11.536;2023-02-01T21:49:37;4.67;;;2.20;;
3815;SDS011;1923;48.154;11.536;2023-02-01T21:52:06;4.57;;;2.30;;
3815;SDS011;1923;48.154;11.536;2023-02-01T21:54:34;1.70;;;1.30;;
3815;SDS011;1923;48.154;11.536;2023-02-01T21:57:04;2.07;;;1.50;;
3815;SDS011;1923;48.154;11.536;2023-02-01T21:59:35;10.23;;;2.40;;
3815;SDS011;1923;48.154;11.536;2023-02-01T22:02:03;5.13;;;1.67;;
3815;SDS011;1923;48.154;11.536;2023-02-01T22:04:33;10.23;;;1.90;;
3815;SDS011;1923;48.154;11.536;2023-02-01T22:07:02;8.90;;;1.80;;
3815;SDS011;1923;48.154;11.536;2023-02-01T22:09:30;7.93;;;1.90;;
3815;SDS011;1923;48.154;11.536;2023-02-01T22:11:58;5.37;;;1.90;;
3815;SDS011;1923;48.154;11.536;2023-02-01T22:14:26;10.80;;;2.77;;
3815;SDS011;1923;48.154;11.536;2023-02-01T22:16:54;7.83;;;2.20;;
3815;SDS011;1923;48.154;11.536;2023-02-01T22:19:22;3.27;;;1.53;;
3815;SDS011;1923;48.154;11.536;2023-02-01T22:21:52;2.80;;;1.70;;
3815;SDS011;1923;48.154;11.536;2023-02-01T22:24:20;6.20;;;2.00;;
3815;SDS011;1923;48.154;11.536;2023-02-01T22:26:48;3.90;;;1.90;;
3815;SDS011;1923;48.154;11.536;2023-02-01T22:29:17;5.10;;;1.70;;
3815;SDS011;1923;48.154;11.536;2023-02-01T22:31:45;2.10;;;1.90;;
3815;SDS011;1923;48.154;11.536;2023-02-01T22:34:14;3.10;;;1.60;;
3815;SDS011;1923;48.154;11.536;2023-02-01T22:36:42;3.77;;;1.90;;
3815;SDS011;1923;48.154;11.536;2023-02-01T22:39:15;4.40;;;2.40;;
3815;SDS011;1923;48.154;11.536;2023-02-01T22:41:43;4.63;;;2.57;;
3815;SDS011;1923;48.154;11.536;2023-02-01T22:44:11;2.00;;;1.80;;
3815;SDS011;1923;48.154;11.536;2023-02-01T22:46:39;2.60;;;1.20;;
3815;SDS011;1923;48.154;11.536;2023-02-01T22:49:08;9.97;;;1.93;;
3815;SDS011;1923;48.154;11.536;2023-02-01T22:51:36;5.00;;;1.60;;
3815;SDS011;1923;48.154;11.536;2023-02-01T22:54:05;7.93;;;1.43;;
3815;SDS011;1923;48.154;11.536;2023-02-01T22:56:35;6.03;;;1.80;;
3815;SDS011;1923;48.154;11.536;2023-02-01T22:59:04;3.17;;;1.43;;
3815;SDS011;1923;48.154;11.536;2023-02-01T23:01:34;5.53;;;1.60;;
3815;SDS011;1923;48.154;11.536;2023-02-01T23:04:03;7.27;;;2.40;;
3815;SDS011;1923;48.154;11.536;2023-02-01T23:06:33;2.20;;;1.70;;
3815;SDS011;1923;48.154;11.536;2023-02-01T23:09:03;4.50;;;1.60;;
3815;SDS011;1923;48.154;11.536;2023-02-01T23:11:38;3.73;;;1.87;;
3815;SDS011;1923;48.154;11.536;2023-02-01T23:14:07;6.20;;;1.80;;
3815;SDS011;1923;48.154;11.536;2023-02-01T23:16:36;5.20;;;2.10;;
3815;SDS011;1923;48.154;11.536;2023-02-01T23:19:06;2.80;;;1.47;;
3815;SDS011;1923;48.154;11.536;2023-02-01T23:21:34;5.40;;;1.37;;
3815;SDS011;1923;48.154;11.536;2023-02-01T23:24:03;3.33;;;1.20;;
3815;SDS011;1923;48.154;11.536;2023-02-01T23:26:33;6.43;;;2.10;;
3815;SDS011;1923;48.154;11.536;2023-02-01T23:29:03;3.80;;;1.37;;
3815;SDS011;1923;48.154;11.536;2023-02-01T23:31:32;3.53;;;1.60;;
3815;SDS011;1923;48.154;11.536;2023-02-01T23:34:02;3.03;;;1.67;;
3815;SDS011;1923;48.154;11.536;2023-02-01T23:36:30;4.93;;;1.73;;
3815;SDS011;1923;48.154;11.536;2023-02-01T23:38:59;6.30;;;1.87;;
3815;SDS011;1923;48.154;11.536;2023-02-01T23:41:27;1.80;;;1.33;;
3815;SDS011;1923;48.154;11.536;2023-02-01T23:43:56;1.90;;;1.80;;
3815;SDS011;1923;48.154;11.536;2023-02-01T23:46:26;4.72;;;1.20;;
3815;SDS011;1923;48.154;11.536;2023-02-01T23:48:56;2.37;;;2.00;;
3815;SDS011;1923;48.154;11.536;2023-02-01T23:51:32;4.07;;;1.57;;
3815;SDS011;1923;48.154;11.536;2023-02-01T23:54:13;8.73;;;2.00;;
3815;SDS011;1923;48.154;11.536;2023-02-01T23:56:42;5.03;;;2.00;;
3815;SDS011;1923;48.154;11.536;2023-02-01T23:59:16;3.97;;;1.60;;
